Record high temperature 39.4°C Record low temperature -14.6°C Record high gust 68.5 km/h Record high average 47.2 km/h Record daily rain 55.3 mm Record low windchill -17.5°C Record high barometer 1045.0 hPa Record low barometer 970.0 hPa
Daily high pressure 1014.0 hPa Daily low pressure 1013.0 hPa Daily low windchill 15.4°C Daily high heat index 18.2°C Daily high gust speed 13.0 kmh W Daily high average speed 9.1 kmh WNW

This page is updated from recent data collected by a WMR200 weather station Use the Reload or Refresh facility on your browser to retrieve the latest data.

Status report of weather station: Bienvenue sur la Station Météo de Godarville



Weather report/warning/Metars

Alexandroupoli Airport , Greece (LGAL) 40-51N 025-55E 3M
Jul 18, 2019 - 10:50 PM EDT / 2019.07.19 0250 UTC
Wind: Calm:0
Visibility: greater than 7 mile(s):0
Temperature: 60 F (16 C)
Dew Point: 57 F (14 C)
Relative Humidity: 87%
Pressure (altimeter): 29.94 in. Hg (1014 hPa)
ob: LGAL 190250Z 00000KT CAVOK 16/14 Q1014
cycle: 3

Charleroi / Gosselies, Belgium (EBCI) 50-28N 004-27E 192M
Jul 18, 2019 - 10:50 PM EDT / 2019.07.19 0250 UTC
Wind: from the SW (230 degrees) at 8 MPH (7 KT):0
Visibility: greater than 7 mile(s):0
Sky conditions: mostly cloudy
Weather: light rain showers
Temperature: 59 F (15 C)
Dew Point: 53 F (12 C)
Relative Humidity: 82%
Pressure (altimeter): 29.94 in. Hg (1014 hPa)
ob: EBCI 190250Z 23007KT 9999 -SHRA BKN028 15/12 Q1014 NOSIG
cycle: 3

Bruxelles National, Belgium (EBBR) 50-54N 004-32E 58M
Jul 18, 2019 - 10:50 PM EDT / 2019.07.19 0250 UTC
Wind: from the SW (230 degrees) at 6 MPH (5 KT):0
Visibility: greater than 7 mile(s):0
Sky conditions: mostly cloudy
Temperature: 60 F (16 C)
Dew Point: 55 F (13 C)
Relative Humidity: 82%
Pressure (altimeter): 29.91 in. Hg (1013 hPa)
ob: EBBR 190250Z 23005KT 9999 BKN028 16/13 Q1013 NOSIG
cycle: 3

Koksijde, Belgium (EBFN) 51-05N 002-39E 9M
Jul 18, 2019 - 11:03 PM EDT / 2019.07.19 0303 UTC
Wind: from the SW (230 degrees) at 5 MPH (4 KT):0
Visibility: 2 mile(s):0
Weather: mist
Temperature: 55 F (13 C)
Dew Point: 53 F (12 C)
Relative Humidity: 93%
Pressure (altimeter): 29.91 in. Hg (1013 hPa)
ob: EBFN 190303Z AUTO 23004KT 4600 BR NCD 13/12 Q1013 GRN
cycle: 3

Poznan, Poland (EPPO) 52-25N 016-50E 92M
Jul 18, 2019 - 11:00 PM EDT / 2019.07.19 0300 UTC
Wind: from the ESE (110 degrees) at 5 MPH (4 KT):0
Visibility: greater than 7 mile(s):0
Temperature: 53 F (12 C)
Dew Point: 48 F (9 C)
Relative Humidity: 81%
Pressure (altimeter): 29.88 in. Hg (1012 hPa)
ob: EPPO 190300Z 11004KT CAVOK 12/09 Q1012 
cycle: 3



Coucher du Soleil:
21:46:16

Lever de Lune:
23:00:27 18/07/19

Coucher de Lune:
07:03:09 18/07/19

Premier Quartier 9 juillet 2019
Pleine Lune 16 juillet 2019
Dernier Quartier 25 juillet 2019
Nouvelle Lune 1 août 2019
Âge de lune : 16 jours,14 heures,38 minutes,96%
Les heures du jour possible étaient aujourd’hui 15:55



Use the RELOAD facility on your browser to retrieve the latest data.

Click here for a daily update of the averages/extremes to date for the month
Created by "Weather Display" software version 10.37P at this start time/date 20:51:51 11/07/2019